sensor_id;sensor_type;location;lat;lon;timestamp;P1;durP1;ratioP1;P2;durP2;ratioP2
71236;SDS011;58984;51.960;5.582;2023-12-29T00:01:32;13.82;;;3.90;;
71236;SDS011;58984;51.960;5.582;2023-12-29T00:03:58;10.05;;;3.60;;
71236;SDS011;58984;51.960;5.582;2023-12-29T00:06:24;8.98;;;4.25;;
71236;SDS011;58984;51.960;5.582;2023-12-29T00:08:49;10.05;;;3.72;;
71236;SDS011;58984;51.960;5.582;2023-12-29T00:11:21;10.18;;;3.55;;
71236;SDS011;58984;51.960;5.582;2023-12-29T00:13:47;12.02;;;4.10;;
71236;SDS011;58984;51.960;5.582;2023-12-29T00:16:14;10.55;;;3.55;;
71236;SDS011;58984;51.960;5.582;2023-12-29T00:18:40;9.00;;;4.05;;
71236;SDS011;58984;51.960;5.582;2023-12-29T00:21:06;7.95;;;3.17;;
71236;SDS011;58984;51.960;5.582;2023-12-29T00:23:32;6.72;;;3.33;;
71236;SDS011;58984;51.960;5.582;2023-12-29T00:25:58;9.55;;;3.85;;
71236;SDS011;58984;51.960;5.582;2023-12-29T00:28:23;9.82;;;4.07;;
71236;SDS011;58984;51.960;5.582;2023-12-29T00:30:49;16.05;;;3.72;;
71236;SDS011;58984;51.960;5.582;2023-12-29T00:33:15;9.77;;;3.70;;
71236;SDS011;58984;51.960;5.582;2023-12-29T00:35:40;7.68;;;3.30;;
71236;SDS011;58984;51.960;5.582;2023-12-29T00:38:06;13.07;;;4.40;;
71236;SDS011;58984;51.960;5.582;2023-12-29T00:40:34;11.30;;;3.70;;
71236;SDS011;58984;51.960;5.582;2023-12-29T00:43:00;11.20;;;4.00;;
71236;SDS011;58984;51.960;5.582;2023-12-29T00:45:26;8.18;;;3.88;;
71236;SDS011;58984;51.960;5.582;2023-12-29T00:47:58;13.73;;;4.80;;
71236;SDS011;58984;51.960;5.582;2023-12-29T00:50:24;8.25;;;3.80;;
71236;SDS011;58984;51.960;5.582;2023-12-29T00:52:51;12.57;;;3.47;;
71236;SDS011;58984;51.960;5.582;2023-12-29T00:55:17;12.27;;;4.22;;
71236;SDS011;58984;51.960;5.582;2023-12-29T00:57:42;15.13;;;4.07;;
71236;SDS011;58984;51.960;5.582;2023-12-29T01:00:10;6.38;;;3.60;;
71236;SDS011;58984;51.960;5.582;2023-12-29T01:02:37;11.40;;;3.58;;
71236;SDS011;58984;51.960;5.582;2023-12-29T01:05:03;8.80;;;4.00;;
71236;SDS011;58984;51.960;5.582;2023-12-29T01:07:28;8.10;;;3.35;;
71236;SDS011;58984;51.960;5.582;2023-12-29T01:09:54;6.38;;;3.33;;
71236;SDS011;58984;51.960;5.582;2023-12-29T01:12:20;9.73;;;4.50;;
71236;SDS011;58984;51.960;5.582;2023-12-29T01:14:45;17.30;;;4.60;;
71236;SDS011;58984;51.960;5.582;2023-12-29T01:17:11;10.40;;;3.50;;
71236;SDS011;58984;51.960;5.582;2023-12-29T01:19:36;8.82;;;3.58;;
71236;SDS011;58984;51.960;5.582;2023-12-29T01:22:02;13.73;;;4.50;;
71236;SDS011;58984;51.960;5.582;2023-12-29T01:24:28;8.38;;;3.80;;
71236;SDS011;58984;51.960;5.582;2023-12-29T01:26:54;9.35;;;4.25;;
71236;SDS011;58984;51.960;5.582;2023-12-29T01:29:19;8.07;;;3.50;;
71236;SDS011;58984;51.960;5.582;2023-12-29T01:31:45;7.18;;;3.53;;
71236;SDS011;58984;51.960;5.582;2023-12-29T01:34:11;12.32;;;3.95;;
71236;SDS011;58984;51.960;5.582;2023-12-29T01:36:36;8.45;;;4.10;;
71236;SDS011;58984;51.960;5.582;2023-12-29T01:39:02;11.68;;;3.67;;
71236;SDS011;58984;51.960;5.582;2023-12-29T01:41:28;8.30;;;3.40;;
71236;SDS011;58984;51.960;5.582;2023-12-29T01:46:30;10.32;;;3.88;;
71236;SDS011;58984;51.960;5.582;2023-12-29T01:48:59;9.88;;;3.60;;
71236;SDS011;58984;51.960;5.582;2023-12-29T01:51:26;9.98;;;3.63;;
71236;SDS011;58984;51.960;5.582;2023-12-29T01:53:52;7.78;;;3.67;;
71236;SDS011;58984;51.960;5.582;2023-12-29T01:56:20;10.52;;;3.95;;
71236;SDS011;58984;51.960;5.582;2023-12-29T01:58:48;7.53;;;3.42;;
71236;SDS011;58984;51.960;5.582;2023-12-29T02:01:15;11.85;;;4.10;;
71236;SDS011;58984;51.960;5.582;2023-12-29T02:03:42;7.75;;;3.67;;
71236;SDS011;58984;51.960;5.582;2023-12-29T02:06:09;9.05;;;3.05;;
71236;SDS011;58984;51.960;5.582;2023-12-29T02:08:39;7.43;;;3.67;;
71236;SDS011;58984;51.960;5.582;2023-12-29T02:11:06;7.35;;;3.33;;
71236;SDS011;58984;51.960;5.582;2023-12-29T02:13:32;7.43;;;3.72;;
71236;SDS011;58984;51.960;5.582;2023-12-29T02:15:59;9.75;;;3.83;;
71236;SDS011;58984;51.960;5.582;2023-12-29T02:18:31;11.52;;;3.72;;
71236;SDS011;58984;51.960;5.582;2023-12-29T02:20:59;8.65;;;3.85;;
71236;SDS011;58984;51.960;5.582;2023-12-29T02:23:27;5.30;;;3.22;;
71236;SDS011;58984;51.960;5.582;2023-12-29T02:25:53;11.93;;;3.63;;
71236;SDS011;58984;51.960;5.582;2023-12-29T02:28:25;10.13;;;4.18;;
71236;SDS011;58984;51.960;5.582;2023-12-29T02:33:21;8.48;;;3.75;;
71236;SDS011;58984;51.960;5.582;2023-12-29T02:35:48;9.00;;;3.63;;
71236;SDS011;58984;51.960;5.582;2023-12-29T02:38:16;9.15;;;4.35;;
71236;SDS011;58984;51.960;5.582;2023-12-29T02:40:42;10.77;;;4.15;;
71236;SDS011;58984;51.960;5.582;2023-12-29T02:43:08;11.70;;;4.40;;
71236;SDS011;58984;51.960;5.582;2023-12-29T02:45:34;11.18;;;3.50;;
71236;SDS011;58984;51.960;5.582;2023-12-29T02:48:00;8.15;;;4.25;;
71236;SDS011;58984;51.960;5.582;2023-12-29T02:50:25;10.50;;;3.92;;
71236;SDS011;58984;51.960;5.582;2023-12-29T02:52:51;8.48;;;4.00;;
71236;SDS011;58984;51.960;5.582;2023-12-29T02:55:17;9.40;;;4.15;;
71236;SDS011;58984;51.960;5.582;2023-12-29T02:57:43;8.00;;;3.78;;
71236;SDS011;58984;51.960;5.582;2023-12-29T03:00:09;12.10;;;4.22;;
71236;SDS011;58984;51.960;5.582;2023-12-29T03:02:35;10.30;;;4.25;;
71236;SDS011;58984;51.960;5.582;2023-12-29T03:05:00;8.18;;;3.60;;
71236;SDS011;58984;51.960;5.582;2023-12-29T03:07:26;9.85;;;4.40;;
71236;SDS011;58984;51.960;5.582;2023-12-29T03:09:52;10.38;;;4.57;;
71236;SDS011;58984;51.960;5.582;2023-12-29T03:12:17;7.72;;;4.40;;
71236;SDS011;58984;51.960;5.582;2023-12-29T03:14:43;8.43;;;4.10;;
71236;SDS011;58984;51.960;5.582;2023-12-29T03:17:10;9.27;;;3.72;;
71236;SDS011;58984;51.960;5.582;2023-12-29T03:19:36;10.77;;;3.75;;
71236;SDS011;58984;51.960;5.582;2023-12-29T03:22:02;10.15;;;4.50;;
71236;SDS011;58984;51.960;5.582;2023-12-29T03:24:28;10.65;;;4.50;;
71236;SDS011;58984;51.960;5.582;2023-12-29T03:26:54;11.50;;;4.47;;
71236;SDS011;58984;51.960;5.582;2023-12-29T03:29:20;9.85;;;4.43;;
71236;SDS011;58984;51.960;5.582;2023-12-29T03:31:46;12.05;;;4.63;;
71236;SDS011;58984;51.960;5.582;2023-12-29T03:34:11;11.27;;;4.05;;
71236;SDS011;58984;51.960;5.582;2023-12-29T03:36:37;10.82;;;4.13;;
71236;SDS011;58984;51.960;5.582;2023-12-29T03:39:03;9.90;;;4.18;;
71236;SDS011;58984;51.960;5.582;2023-12-29T03:41:28;12.90;;;4.75;;
71236;SDS011;58984;51.960;5.582;2023-12-29T03:43:54;10.40;;;4.60;;
71236;SDS011;58984;51.960;5.582;2023-12-29T03:46:21;12.70;;;4.95;;
71236;SDS011;58984;51.960;5.582;2023-12-29T03:48:48;12.07;;;5.10;;
71236;SDS011;58984;51.960;5.582;2023-12-29T03:51:14;9.23;;;4.43;;
71236;SDS011;58984;51.960;5.582;2023-12-29T03:53:40;11.80;;;4.82;;
71236;SDS011;58984;51.960;5.582;2023-12-29T03:56:07;15.10;;;5.53;;
71236;SDS011;58984;51.960;5.582;2023-12-29T03:58:33;15.95;;;4.78;;
71236;SDS011;58984;51.960;5.582;2023-12-29T04:00:59;12.13;;;4.82;;
71236;SDS011;58984;51.960;5.582;2023-12-29T04:03:25;16.33;;;4.93;;
71236;SDS011;58984;51.960;5.582;2023-12-29T04:05:51;13.48;;;4.93;;
71236;SDS011;58984;51.960;5.582;2023-12-29T04:08:16;13.75;;;4.93;;
71236;SDS011;58984;51.960;5.582;2023-12-29T04:10:42;15.50;;;5.70;;
71236;SDS011;58984;51.960;5.582;2023-12-29T04:13:08;12.88;;;4.72;;
71236;SDS011;58984;51.960;5.582;2023-12-29T04:15:33;14.75;;;5.25;;
71236;SDS011;58984;51.960;5.582;2023-12-29T04:17:59;10.68;;;4.53;;
71236;SDS011;58984;51.960;5.582;2023-12-29T04:20:24;12.38;;;5.60;;
71236;SDS011;58984;51.960;5.582;2023-12-29T04:22:50;12.75;;;4.90;;
71236;SDS011;58984;51.960;5.582;2023-12-29T04:25:16;14.15;;;4.90;;
71236;SDS011;58984;51.960;5.582;2023-12-29T04:27:41;15.13;;;5.10;;
71236;SDS011;58984;51.960;5.582;2023-12-29T04:30:07;15.45;;;6.05;;
71236;SDS011;58984;51.960;5.582;2023-12-29T04:32:33;15.23;;;5.88;;
71236;SDS011;58984;51.960;5.582;2023-12-29T04:34:59;10.60;;;4.38;;
71236;SDS011;58984;51.960;5.582;2023-12-29T04:37:25;12.63;;;5.30;;
71236;SDS011;58984;51.960;5.582;2023-12-29T04:39:50;13.05;;;5.25;;
71236;SDS011;58984;51.960;5.582;2023-12-29T04:42:16;19.08;;;5.15;;
71236;SDS011;58984;51.960;5.582;2023-12-29T04:44:43;18.88;;;5.00;;
71236;SDS011;58984;51.960;5.582;2023-12-29T04:47:09;16.90;;;5.22;;
71236;SDS011;58984;51.960;5.582;2023-12-29T04:49:34;13.15;;;5.22;;
71236;SDS011;58984;51.960;5.582;2023-12-29T04:52:00;11.95;;;4.85;;
71236;SDS011;58984;51.960;5.582;2023-12-29T04:54:26;12.95;;;5.03;;
71236;SDS011;58984;51.960;5.582;2023-12-29T04:56:52;14.80;;;5.45;;
71236;SDS011;58984;51.960;5.582;2023-12-29T04:59:18;13.10;;;5.72;;
71236;SDS011;58984;51.960;5.582;2023-12-29T05:01:43;14.82;;;6.00;;
71236;SDS011;58984;51.960;5.582;2023-12-29T05:04:09;10.50;;;5.03;;
71236;SDS011;58984;51.960;5.582;2023-12-29T05:06:34;15.02;;;5.05;;
71236;SDS011;58984;51.960;5.582;2023-12-29T05:09:00;12.32;;;4.93;;
71236;SDS011;58984;51.960;5.582;2023-12-29T05:11:26;11.63;;;5.22;;
71236;SDS011;58984;51.960;5.582;2023-12-29T05:13:51;15.10;;;5.28;;
71236;SDS011;58984;51.960;5.582;2023-12-29T05:16:17;8.98;;;4.35;;
71236;SDS011;58984;51.960;5.582;2023-12-29T05:18:43;14.07;;;4.88;;
71236;SDS011;58984;51.960;5.582;2023-12-29T05:21:17;16.17;;;5.30;;
71236;SDS011;58984;51.960;5.582;2023-12-29T05:23:44;14.60;;;5.60;;
71236;SDS011;58984;51.960;5.582;2023-12-29T05:26:16;15.20;;;5.45;;
71236;SDS011;58984;51.960;5.582;2023-12-29T05:28:42;14.75;;;5.70;;
71236;SDS011;58984;51.960;5.582;2023-12-29T05:31:08;11.18;;;5.10;;
71236;SDS011;58984;51.960;5.582;2023-12-29T05:33:34;16.52;;;5.18;;
71236;SDS011;58984;51.960;5.582;2023-12-29T05:36:07;11.32;;;5.18;;
71236;SDS011;58984;51.960;5.582;2023-12-29T05:38:34;12.23;;;5.03;;
71236;SDS011;58984;51.960;5.582;2023-12-29T05:41:00;11.35;;;4.70;;
71236;SDS011;58984;51.960;5.582;2023-12-29T05:43:27;16.23;;;5.35;;
71236;SDS011;58984;51.960;5.582;2023-12-29T05:45:53;17.27;;;5.57;;
71236;SDS011;58984;51.960;5.582;2023-12-29T05:48:19;12.90;;;4.88;;
71236;SDS011;58984;51.960;5.582;2023-12-29T05:50:44;13.13;;;4.47;;
71236;SDS011;58984;51.960;5.582;2023-12-29T05:53:10;11.75;;;5.28;;
71236;SDS011;58984;51.960;5.582;2023-12-29T05:55:36;11.93;;;4.35;;
71236;SDS011;58984;51.960;5.582;2023-12-29T05:58:01;11.68;;;4.90;;
71236;SDS011;58984;51.960;5.582;2023-12-29T06:00:27;11.98;;;4.72;;
71236;SDS011;58984;51.960;5.582;2023-12-29T06:02:53;11.90;;;4.50;;
71236;SDS011;58984;51.960;5.582;2023-12-29T06:05:18;14.68;;;5.03;;
71236;SDS011;58984;51.960;5.582;2023-12-29T06:07:44;12.95;;;5.20;;
71236;SDS011;58984;51.960;5.582;2023-12-29T06:10:10;15.93;;;4.93;;
71236;SDS011;58984;51.960;5.582;2023-12-29T06:12:36;11.07;;;4.65;;
71236;SDS011;58984;51.960;5.582;2023-12-29T06:15:02;12.32;;;5.20;;
71236;SDS011;58984;51.960;5.582;2023-12-29T06:17:28;16.80;;;4.75;;
71236;SDS011;58984;51.960;5.582;2023-12-29T06:19:54;19.42;;;5.38;;
71236;SDS011;58984;51.960;5.582;2023-12-29T06:22:19;9.32;;;4.43;;
71236;SDS011;58984;51.960;5.582;2023-12-29T06:24:45;9.05;;;4.43;;
71236;SDS011;58984;51.960;5.582;2023-12-29T06:27:11;10.45;;;4.70;;
71236;SDS011;58984;51.960;5.582;2023-12-29T06:29:37;9.88;;;4.70;;
71236;SDS011;58984;51.960;5.582;2023-12-29T06:32:02;12.60;;;4.72;;
71236;SDS011;58984;51.960;5.582;2023-12-29T06:34:28;12.15;;;4.43;;
71236;SDS011;58984;51.960;5.582;2023-12-29T06:36:54;14.50;;;4.72;;
71236;SDS011;58984;51.960;5.582;2023-12-29T06:39:20;11.38;;;4.78;;
71236;SDS011;58984;51.960;5.582;2023-12-29T06:41:46;11.27;;;4.70;;
71236;SDS011;58984;51.960;5.582;2023-12-29T06:44:11;11.40;;;4.55;;
71236;SDS011;58984;51.960;5.582;2023-12-29T06:46:37;11.40;;;4.97;;
71236;SDS011;58984;51.960;5.582;2023-12-29T06:49:03;9.48;;;3.78;;
71236;SDS011;58984;51.960;5.582;2023-12-29T06:51:32;12.75;;;4.22;;
71236;SDS011;58984;51.960;5.582;2023-12-29T06:54:10;13.05;;;4.55;;
71236;SDS011;58984;51.960;5.582;2023-12-29T06:56:36;12.95;;;4.68;;
71236;SDS011;58984;51.960;5.582;2023-12-29T06:59:02;9.32;;;4.40;;
71236;SDS011;58984;51.960;5.582;2023-12-29T07:01:27;11.48;;;4.45;;
71236;SDS011;58984;51.960;5.582;2023-12-29T07:03:53;10.10;;;4.35;;
71236;SDS011;58984;51.960;5.582;2023-12-29T07:06:19;12.93;;;4.45;;
71236;SDS011;58984;51.960;5.582;2023-12-29T07:08:44;10.70;;;3.58;;
71236;SDS011;58984;51.960;5.582;2023-12-29T07:11:11;8.35;;;3.53;;
71236;SDS011;58984;51.960;5.582;2023-12-29T07:13:37;8.80;;;3.55;;
71236;SDS011;58984;51.960;5.582;2023-12-29T07:16:03;5.55;;;3.60;;
71236;SDS011;58984;51.960;5.582;2023-12-29T07:18:29;10.32;;;3.97;;
71236;SDS011;58984;51.960;5.582;2023-12-29T07:20:55;7.68;;;3.50;;
71236;SDS011;58984;51.960;5.582;2023-12-29T07:23:21;9.32;;;3.92;;
71236;SDS011;58984;51.960;5.582;2023-12-29T07:25:47;8.40;;;3.78;;
71236;SDS011;58984;51.960;5.582;2023-12-29T07:28:13;9.07;;;3.85;;
71236;SDS011;58984;51.960;5.582;2023-12-29T07:30:39;6.97;;;3.60;;
71236;SDS011;58984;51.960;5.582;2023-12-29T07:33:05;8.00;;;3.90;;
71236;SDS011;58984;51.960;5.582;2023-12-29T07:35:31;5.93;;;3.60;;
71236;SDS011;58984;51.960;5.582;2023-12-29T07:37:56;9.15;;;3.58;;
71236;SDS011;58984;51.960;5.582;2023-12-29T07:40:22;8.80;;;3.47;;
71236;SDS011;58984;51.960;5.582;2023-12-29T07:42:48;8.85;;;3.75;;
71236;SDS011;58984;51.960;5.582;2023-12-29T07:45:15;9.38;;;4.15;;
71236;SDS011;58984;51.960;5.582;2023-12-29T07:47:41;8.55;;;3.80;;
71236;SDS011;58984;51.960;5.582;2023-12-29T07:50:07;10.98;;;3.78;;
71236;SDS011;58984;51.960;5.582;2023-12-29T07:52:33;7.47;;;3.72;;
71236;SDS011;58984;51.960;5.582;2023-12-29T07:54:59;7.07;;;4.03;;
71236;SDS011;58984;51.960;5.582;2023-12-29T07:57:25;7.82;;;3.75;;
71236;SDS011;58984;51.960;5.582;2023-12-29T07:59:50;7.82;;;3.95;;
71236;SDS011;58984;51.960;5.582;2023-12-29T08:02:16;6.57;;;3.45;;
71236;SDS011;58984;51.960;5.582;2023-12-29T08:04:42;6.82;;;3.63;;
71236;SDS011;58984;51.960;5.582;2023-12-29T08:07:07;8.90;;;3.58;;
71236;SDS011;58984;51.960;5.582;2023-12-29T08:09:34;7.25;;;3.92;;
71236;SDS011;58984;51.960;5.582;2023-12-29T08:12:00;8.13;;;3.92;;
71236;SDS011;58984;51.960;5.582;2023-12-29T08:14:26;8.90;;;4.10;;
71236;SDS011;58984;51.960;5.582;2023-12-29T08:16:51;9.57;;;3.67;;
71236;SDS011;58984;51.960;5.582;2023-12-29T08:19:17;9.57;;;3.90;;
71236;SDS011;58984;51.960;5.582;2023-12-29T08:21:43;6.57;;;3.25;;
71236;SDS011;58984;51.960;5.582;2023-12-29T08:24:08;7.43;;;3.60;;
71236;SDS011;58984;51.960;5.582;2023-12-29T08:26:34;5.88;;;3.42;;
71236;SDS011;58984;51.960;5.582;2023-12-29T08:29:07;10.68;;;3.55;;
71236;SDS011;58984;51.960;5.582;2023-12-29T08:31:32;6.03;;;3.30;;
71236;SDS011;58984;51.960;5.582;2023-12-29T08:33:58;6.80;;;3.47;;
71236;SDS011;58984;51.960;5.582;2023-12-29T08:36:24;8.63;;;3.42;;
71236;SDS011;58984;51.960;5.582;2023-12-29T08:38:49;4.68;;;2.95;;
71236;SDS011;58984;51.960;5.582;2023-12-29T08:41:15;6.38;;;3.35;;
71236;SDS011;58984;51.960;5.582;2023-12-29T08:43:41;8.38;;;3.45;;
71236;SDS011;58984;51.960;5.582;2023-12-29T08:46:06;10.73;;;3.67;;
71236;SDS011;58984;51.960;5.582;2023-12-29T08:48:32;10.05;;;3.85;;
71236;SDS011;58984;51.960;5.582;2023-12-29T08:50:59;7.70;;;3.60;;
71236;SDS011;58984;51.960;5.582;2023-12-29T08:53:24;7.25;;;3.20;;
71236;SDS011;58984;51.960;5.582;2023-12-29T08:55:50;7.43;;;3.65;;
71236;SDS011;58984;51.960;5.582;2023-12-29T08:58:16;6.05;;;3.60;;
71236;SDS011;58984;51.960;5.582;2023-12-29T09:00:42;9.77;;;3.35;;
71236;SDS011;58984;51.960;5.582;2023-12-29T09:03:09;6.93;;;2.88;;
71236;SDS011;58984;51.960;5.582;2023-12-29T09:05:35;5.97;;;2.50;;
71236;SDS011;58984;51.960;5.582;2023-12-29T09:08:01;4.65;;;2.97;;
71236;SDS011;58984;51.960;5.582;2023-12-29T09:10:26;6.00;;;3.53;;
71236;SDS011;58984;51.960;5.582;2023-12-29T09:12:52;4.57;;;3.10;;
71236;SDS011;58984;51.960;5.582;2023-12-29T09:15:17;7.88;;;3.80;;
71236;SDS011;58984;51.960;5.582;2023-12-29T09:17:43;6.20;;;3.30;;
71236;SDS011;58984;51.960;5.582;2023-12-29T09:20:09;5.70;;;2.80;;
71236;SDS011;58984;51.960;5.582;2023-12-29T09:22:35;4.38;;;2.72;;
71236;SDS011;58984;51.960;5.582;2023-12-29T09:25:00;4.07;;;2.60;;
71236;SDS011;58984;51.960;5.582;2023-12-29T09:27:26;6.90;;;3.25;;
71236;SDS011;58984;51.960;5.582;2023-12-29T09:29:52;10.90;;;3.47;;
71236;SDS011;58984;51.960;5.582;2023-12-29T09:32:18;7.18;;;2.83;;
71236;SDS011;58984;51.960;5.582;2023-12-29T09:34:44;7.00;;;3.10;;
71236;SDS011;58984;51.960;5.582;2023-12-29T09:37:10;6.35;;;3.22;;
71236;SDS011;58984;51.960;5.582;2023-12-29T09:39:35;8.25;;;3.10;;
71236;SDS011;58984;51.960;5.582;2023-12-29T09:42:01;5.65;;;2.80;;
71236;SDS011;58984;51.960;5.582;2023-12-29T09:44:29;5.28;;;2.95;;
71236;SDS011;58984;51.960;5.582;2023-12-29T09:46:57;5.47;;;2.70;;
71236;SDS011;58984;51.960;5.582;2023-12-29T09:49:37;6.22;;;2.72;;
71236;SDS011;58984;51.960;5.582;2023-12-29T09:52:07;5.13;;;2.92;;
71236;SDS011;58984;51.960;5.582;2023-12-29T09:54:34;4.10;;;2.63;;
71236;SDS011;58984;51.960;5.582;2023-12-29T09:57:02;7.32;;;2.45;;
71236;SDS011;58984;51.960;5.582;2023-12-29T09:59:29;6.20;;;3.10;;
71236;SDS011;58984;51.960;5.582;2023-12-29T10:01:57;4.07;;;2.30;;
71236;SDS011;58984;51.960;5.582;2023-12-29T10:04:23;4.95;;;2.95;;
71236;SDS011;58984;51.960;5.582;2023-12-29T10:06:48;5.22;;;2.67;;
71236;SDS011;58984;51.960;5.582;2023-12-29T10:09:15;11.07;;;2.97;;
71236;SDS011;58984;51.960;5.582;2023-12-29T10:11:44;4.07;;;2.97;;
71236;SDS011;58984;51.960;5.582;2023-12-29T10:14:24;6.30;;;2.78;;
71236;SDS011;58984;51.960;5.582;2023-12-29T10:20:07;4.35;;;2.60;;
71236;SDS011;58984;51.960;5.582;2023-12-29T10:22:41;7.22;;;2.78;;
71236;SDS011;58984;51.960;5.582;2023-12-29T10:25:08;6.95;;;3.17;;
71236;SDS011;58984;51.960;5.582;2023-12-29T10:30:11;5.25;;;3.15;;
71236;SDS011;58984;51.960;5.582;2023-12-29T10:32:51;3.58;;;2.67;;
71236;SDS011;58984;51.960;5.582;2023-12-29T10:35:28;7.68;;;3.08;;
71236;SDS011;58984;51.960;5.582;2023-12-29T10:38:09;3.97;;;2.72;;
71236;SDS011;58984;51.960;5.582;2023-12-29T10:40:36;5.82;;;2.85;;
71236;SDS011;58984;51.960;5.582;2023-12-29T10:43:07;6.15;;;2.45;;
71236;SDS011;58984;51.960;5.582;2023-12-29T10:48:37;3.80;;;2.65;;
71236;SDS011;58984;51.960;5.582;2023-12-29T10:51:04;6.72;;;2.80;;
71236;SDS011;58984;51.960;5.582;2023-12-29T10:53:33;5.10;;;2.67;;
71236;SDS011;58984;51.960;5.582;2023-12-29T10:56:00;5.53;;;2.92;;
71236;SDS011;58984;51.960;5.582;2023-12-29T10:58:29;6.53;;;2.65;;
71236;SDS011;58984;51.960;5.582;2023-12-29T11:00:56;5.07;;;2.45;;
71236;SDS011;58984;51.960;5.582;2023-12-29T11:03:22;3.30;;;2.50;;
71236;SDS011;58984;51.960;5.582;2023-12-29T11:05:49;4.65;;;2.50;;
71236;SDS011;58984;51.960;5.582;2023-12-29T11:08:16;5.07;;;2.50;;
71236;SDS011;58984;51.960;5.582;2023-12-29T11:10:43;4.22;;;2.17;;
71236;SDS011;58984;51.960;5.582;2023-12-29T11:13:10;7.93;;;3.10;;
71236;SDS011;58984;51.960;5.582;2023-12-29T11:15:40;9.70;;;3.15;;
71236;SDS011;58984;51.960;5.582;2023-12-29T11:18:17;6.63;;;2.72;;
71236;SDS011;58984;51.960;5.582;2023-12-29T11:20:44;4.38;;;2.40;;
71236;SDS011;58984;51.960;5.582;2023-12-29T11:23:10;5.78;;;2.63;;
71236;SDS011;58984;51.960;5.582;2023-12-29T11:25:39;7.95;;;2.90;;
71236;SDS011;58984;51.960;5.582;2023-12-29T11:28:09;7.75;;;3.28;;
71236;SDS011;58984;51.960;5.582;2023-12-29T11:30:38;7.30;;;2.75;;
71236;SDS011;58984;51.960;5.582;2023-12-29T11:35:56;4.75;;;3.05;;
71236;SDS011;58984;51.960;5.582;2023-12-29T11:44:12;5.32;;;2.47;;
71236;SDS011;58984;51.960;5.582;2023-12-29T11:46:43;5.47;;;3.20;;
71236;SDS011;58984;51.960;5.582;2023-12-29T11:49:09;4.55;;;2.42;;
71236;SDS011;58984;51.960;5.582;2023-12-29T11:51:36;6.63;;;3.00;;
71236;SDS011;58984;51.960;5.582;2023-12-29T11:54:05;8.18;;;3.03;;
71236;SDS011;58984;51.960;5.582;2023-12-29T11:56:35;5.70;;;3.03;;
71236;SDS011;58984;51.960;5.582;2023-12-29T11:59:14;7.53;;;2.97;;
71236;SDS011;58984;51.960;5.582;2023-12-29T12:01:49;5.63;;;2.80;;
71236;SDS011;58984;51.960;5.582;2023-12-29T12:07:02;8.77;;;2.70;;
71236;SDS011;58984;51.960;5.582;2023-12-29T12:09:28;5.20;;;3.03;;
71236;SDS011;58984;51.960;5.582;2023-12-29T12:11:54;5.35;;;2.75;;
71236;SDS011;58984;51.960;5.582;2023-12-29T12:17:26;6.30;;;2.72;;
71236;SDS011;58984;51.960;5.582;2023-12-29T12:19:56;5.53;;;3.22;;
71236;SDS011;58984;51.960;5.582;2023-12-29T12:22:31;9.77;;;3.35;;
71236;SDS011;58984;51.960;5.582;2023-12-29T12:24:58;6.05;;;2.95;;
71236;SDS011;58984;51.960;5.582;2023-12-29T12:27:27;6.20;;;2.78;;
71236;SDS011;58984;51.960;5.582;2023-12-29T12:29:54;4.55;;;2.97;;
71236;SDS011;58984;51.960;5.582;2023-12-29T12:32:22;6.53;;;2.67;;
71236;SDS011;58984;51.960;5.582;2023-12-29T12:34:49;4.72;;;3.05;;
71236;SDS011;58984;51.960;5.582;2023-12-29T12:37:24;6.13;;;3.00;;
71236;SDS011;58984;51.960;5.582;2023-12-29T12:39:52;10.30;;;2.83;;
71236;SDS011;58984;51.960;5.582;2023-12-29T12:42:18;6.45;;;2.90;;
71236;SDS011;58984;51.960;5.582;2023-12-29T12:44:55;4.18;;;2.47;;
71236;SDS011;58984;51.960;5.582;2023-12-29T12:47:37;3.92;;;2.30;;
71236;SDS011;58984;51.960;5.582;2023-12-29T12:50:10;7.68;;;2.83;;
71236;SDS011;58984;51.960;5.582;2023-12-29T12:52:37;4.88;;;2.17;;
71236;SDS011;58984;51.960;5.582;2023-12-29T12:55:04;6.22;;;2.90;;
71236;SDS011;58984;51.960;5.582;2023-12-29T12:57:31;6.93;;;2.55;;
71236;SDS011;58984;51.960;5.582;2023-12-29T12:59:58;5.95;;;2.70;;
71236;SDS011;58984;51.960;5.582;2023-12-29T13:02:25;5.50;;;3.10;;
71236;SDS011;58984;51.960;5.582;2023-12-29T13:04:52;8.30;;;3.13;;
71236;SDS011;58984;51.960;5.582;2023-12-29T13:07:18;8.68;;;3.53;;
71236;SDS011;58984;51.960;5.582;2023-12-29T13:09:48;5.93;;;3.17;;
71236;SDS011;58984;51.960;5.582;2023-12-29T13:12:15;8.27;;;3.45;;
71236;SDS011;58984;51.960;5.582;2023-12-29T13:14:42;7.65;;;3.22;;
71236;SDS011;58984;51.960;5.582;2023-12-29T13:17:12;8.00;;;2.97;;
71236;SDS011;58984;51.960;5.582;2023-12-29T13:19:40;8.45;;;3.28;;
71236;SDS011;58984;51.960;5.582;2023-12-29T13:22:10;6.85;;;3.45;;
71236;SDS011;58984;51.960;5.582;2023-12-29T13:24:44;7.65;;;3.38;;
71236;SDS011;58984;51.960;5.582;2023-12-29T13:27:10;8.32;;;3.58;;
71236;SDS011;58984;51.960;5.582;2023-12-29T13:29:37;8.88;;;3.10;;
71236;SDS011;58984;51.960;5.582;2023-12-29T13:32:20;6.55;;;3.67;;
71236;SDS011;58984;51.960;5.582;2023-12-29T13:42:49;6.57;;;3.55;;
71236;SDS011;58984;51.960;5.582;2023-12-29T13:45:18;10.20;;;3.58;;
71236;SDS011;58984;51.960;5.582;2023-12-29T13:47:45;6.45;;;3.28;;
71236;SDS011;58984;51.960;5.582;2023-12-29T13:50:11;10.65;;;3.47;;
71236;SDS011;58984;51.960;5.582;2023-12-29T13:52:37;5.72;;;3.58;;
71236;SDS011;58984;51.960;5.582;2023-12-29T13:55:04;5.82;;;3.00;;
71236;SDS011;58984;51.960;5.582;2023-12-29T13:57:34;7.28;;;3.50;;
71236;SDS011;58984;51.960;5.582;2023-12-29T14:00:16;8.48;;;3.83;;
71236;SDS011;58984;51.960;5.582;2023-12-29T14:05:36;9.85;;;3.45;;
71236;SDS011;58984;51.960;5.582;2023-12-29T14:08:19;6.72;;;3.40;;
71236;SDS011;58984;51.960;5.582;2023-12-29T14:10:50;8.77;;;3.78;;
71236;SDS011;58984;51.960;5.582;2023-12-29T14:13:16;5.85;;;3.15;;
71236;SDS011;58984;51.960;5.582;2023-12-29T14:15:43;9.95;;;3.40;;
71236;SDS011;58984;51.960;5.582;2023-12-29T14:20:40;9.82;;;3.55;;
71236;SDS011;58984;51.960;5.582;2023-12-29T14:23:06;8.40;;;3.83;;
71236;SDS011;58984;51.960;5.582;2023-12-29T14:25:33;8.93;;;3.67;;
71236;SDS011;58984;51.960;5.582;2023-12-29T14:28:05;13.45;;;3.42;;
71236;SDS011;58984;51.960;5.582;2023-12-29T14:33:09;19.98;;;4.07;;
71236;SDS011;58984;51.960;5.582;2023-12-29T14:35:35;9.05;;;3.75;;
71236;SDS011;58984;51.960;5.582;2023-12-29T14:38:00;13.20;;;4.57;;
71236;SDS011;58984;51.960;5.582;2023-12-29T14:40:26;11.05;;;4.47;;
71236;SDS011;58984;51.960;5.582;2023-12-29T14:42:52;14.25;;;4.03;;
71236;SDS011;58984;51.960;5.582;2023-12-29T14:45:18;10.60;;;4.28;;
71236;SDS011;58984;51.960;5.582;2023-12-29T14:47:44;7.78;;;4.38;;
71236;SDS011;58984;51.960;5.582;2023-12-29T14:50:10;10.25;;;4.40;;
71236;SDS011;58984;51.960;5.582;2023-12-29T14:52:37;10.48;;;4.00;;
71236;SDS011;58984;51.960;5.582;2023-12-29T14:55:03;12.52;;;4.72;;
71236;SDS011;58984;51.960;5.582;2023-12-29T14:57:29;10.98;;;4.20;;
71236;SDS011;58984;51.960;5.582;2023-12-29T14:59:54;8.65;;;3.90;;
71236;SDS011;58984;51.960;5.582;2023-12-29T15:02:20;7.18;;;3.90;;
71236;SDS011;58984;51.960;5.582;2023-12-29T15:04:46;5.68;;;3.78;;
71236;SDS011;58984;51.960;5.582;2023-12-29T15:07:12;6.80;;;3.75;;
71236;SDS011;58984;51.960;5.582;2023-12-29T15:09:38;10.40;;;4.78;;
71236;SDS011;58984;51.960;5.582;2023-12-29T15:12:04;7.78;;;4.03;;
71236;SDS011;58984;51.960;5.582;2023-12-29T15:14:30;7.25;;;3.78;;
71236;SDS011;58984;51.960;5.582;2023-12-29T15:16:56;8.73;;;4.35;;
71236;SDS011;58984;51.960;5.582;2023-12-29T15:19:22;7.13;;;3.72;;
71236;SDS011;58984;51.960;5.582;2023-12-29T15:21:47;6.15;;;3.90;;
71236;SDS011;58984;51.960;5.582;2023-12-29T15:24:18;7.72;;;4.40;;
71236;SDS011;58984;51.960;5.582;2023-12-29T15:26:46;8.27;;;4.18;;